Time;durP1;ratioP1;P1;durP2;ratioP2;P2;SDS_P1;SDS_P2;PMS_P1;PMS_P2;Temp;Humidity;BMP_temperature;BMP_pressure;BME280_temperature;BME280_humidity;BME280_pressure;Samples;Min_cycle;Max_cycle;Signal;HPM_P1;HPM_P2
2021/03/12 00:00:15;;;;;;;1.90;0.80;;;5.60;99.90;;;;;;5035439;28;20267;-84
2021/03/12 00:02:42;;;;;;;0.88;0.88;;;5.60;99.90;;;;;;5046042;28;20576;-85
2021/03/12 00:05:10;;;;;;;3.15;1.20;;;5.60;99.90;;;;;;5034408;28;20203;-84
2021/03/12 00:07:38;;;;;;;1.40;0.80;;;5.60;99.90;;;;;;5049859;28;20203;-84
2021/03/12 00:10:10;;;;;;;2.63;1.13;;;5.60;99.90;;;;;;5035666;28;20197;-84
2021/03/12 00:12:36;;;;;;;1.35;0.77;;;5.60;99.90;;;;;;5029830;28;20212;-83
2021/03/12 00:15:06;;;;;;;6.75;1.70;;;5.70;99.90;;;;;;5030167;28;20212;-83
2021/03/12 00:17:33;;;;;;;5.10;1.65;;;5.80;99.90;;;;;;5030725;28;20216;-84
2021/03/12 00:19:59;;;;;;;2.25;0.80;;;5.90;99.90;;;;;;5048988;28;20211;-83
2021/03/12 00:22:26;;;;;;;1.88;0.90;;;5.90;99.90;;;;;;5051396;28;20286;-83
2021/03/12 00:24:53;;;;;;;1.70;1.10;;;5.80;99.90;;;;;;5031641;28;20216;-84
2021/03/12 00:27:20;;;;;;;1.92;1.20;;;6.00;99.90;;;;;;5041171;28;20199;-84
2021/03/12 00:29:46;;;;;;;1.25;1.00;;;6.00;99.90;;;;;;5048445;28;20593;-83
2021/03/12 00:32:13;;;;;;;0.75;0.70;;;6.10;99.90;;;;;;5049098;28;20227;-84
2021/03/12 00:34:39;;;;;;;1.30;1.02;;;6.20;99.90;;;;;;5035076;28;20223;-83
2021/03/12 00:37:05;;;;;;;2.55;1.10;;;6.10;99.90;;;;;;5039639;28;20219;-83
2021/03/12 00:39:32;;;;;;;1.42;1.08;;;6.10;99.90;;;;;;5037257;28;20732;-83
2021/03/12 00:42:00;;;;;;;0.98;0.80;;;6.10;99.90;;;;;;5030934;28;20571;-83
2021/03/12 00:44:26;;;;;;;1.88;0.80;;;6.00;99.90;;;;;;5030310;28;20196;-83
2021/03/12 00:46:53;;;;;;;3.05;0.98;;;6.10;99.90;;;;;;5037473;28;20377;-82
2021/03/12 00:49:20;;;;;;;0.93;0.93;;;6.10;99.90;;;;;;5036722;28;20247;-82
2021/03/12 00:51:47;;;;;;;1.08;1.08;;;6.10;99.90;;;;;;5037571;28;20637;-83
2021/03/12 00:54:13;;;;;;;2.20;1.45;;;6.20;99.90;;;;;;5033661;28;20239;-82
2021/03/12 00:56:40;;;;;;;2.97;1.00;;;6.10;98.90;;;;;;5036022;28;20318;-82
2021/03/12 00:59:07;;;;;;;3.53;1.60;;;6.10;98.80;;;;;;5044230;28;20189;-82
2021/03/12 01:01:33;;;;;;;1.23;1.00;;;6.10;98.00;;;;;;5048176;28;20196;-82
2021/03/12 01:04:00;;;;;;;3.33;1.30;;;6.10;98.00;;;;;;5042549;28;20193;-81
2021/03/12 01:06:27;;;;;;;1.55;1.00;;;6.30;97.30;;;;;;5032853;28;20279;-82
2021/03/12 01:08:54;;;;;;;4.43;2.28;;;6.20;97.20;;;;;;5045304;28;20298;-83
2021/03/12 01:11:20;;;;;;;1.85;0.98;;;6.30;96.80;;;;;;5031418;28;20297;-84
2021/03/12 01:13:47;;;;;;;4.97;1.00;;;6.30;96.60;;;;;;5036152;28;20197;-83
2021/03/12 01:16:14;;;;;;;1.90;1.10;;;6.30;96.60;;;;;;5029965;28;20211;-83
2021/03/12 01:18:41;;;;;;;1.42;1.00;;;6.30;96.90;;;;;;5031170;28;20255;-83
2021/03/12 01:21:07;;;;;;;1.67;1.08;;;6.30;96.60;;;;;;5039636;28;20196;-83
2021/03/12 01:23:34;;;;;;;6.90;1.63;;;6.20;96.40;;;;;;5057163;28;20209;-83
2021/03/12 01:26:00;;;;;;;2.45;1.10;;;6.10;95.90;;;;;;5036429;28;20211;-82
2021/03/12 01:28:27;;;;;;;3.53;1.75;;;6.30;94.90;;;;;;5047984;28;20215;-83
2021/03/12 01:30:53;;;;;;;1.30;1.20;;;6.20;94.70;;;;;;5030523;28;20224;-82
2021/03/12 01:33:21;;;;;;;5.10;2.25;;;6.40;94.40;;;;;;5030488;28;20625;-82
2021/03/12 01:35:48;;;;;;;4.10;2.10;;;6.30;94.80;;;;;;5044526;28;20208;-83
2021/03/12 01:38:14;;;;;;;2.70;2.13;;;6.40;94.90;;;;;;5037781;28;20205;-83
2021/03/12 01:40:44;;;;;;;4.60;1.00;;;6.40;94.70;;;;;;5033661;28;20196;-83
2021/03/12 01:43:11;;;;;;;2.95;1.00;;;6.30;95.00;;;;;;5046100;28;20209;-83
2021/03/12 01:45:40;;;;;;;2.50;0.88;;;6.50;93.80;;;;;;5029667;28;20686;-83
2021/03/12 01:48:09;;;;;;;3.20;1.40;;;6.30;94.50;;;;;;5032320;28;20201;-82
2021/03/12 01:50:37;;;;;;;1.58;0.80;;;6.00;96.30;;;;;;5048730;28;20223;-83
2021/03/12 01:53:04;;;;;;;0.80;0.70;;;5.70;98.00;;;;;;5028396;28;20621;-83
2021/03/12 01:55:33;;;;;;;2.60;1.35;;;5.60;98.60;;;;;;5031620;28;20203;-82
2021/03/12 01:58:00;;;;;;;2.35;1.10;;;5.40;99.90;;;;;;5050826;28;20681;-82
2021/03/12 02:00:28;;;;;;;2.35;0.90;;;5.40;99.90;;;;;;5046148;28;20203;-82
2021/03/12 02:02:56;;;;;;;2.25;1.42;;;5.30;99.90;;;;;;5049469;28;20227;-82
2021/03/12 02:05:24;;;;;;;2.13;0.98;;;5.20;99.90;;;;;;5047484;28;20214;-82
2021/03/12 02:07:53;;;;;;;2.50;1.23;;;5.30;99.90;;;;;;5041285;28;20389;-82
2021/03/12 02:10:25;;;;;;;1.33;0.98;;;5.40;99.90;;;;;;5052931;28;20199;-82
2021/03/12 02:13:01;;;;;;;2.20;1.25;;;5.40;99.90;;;;;;5047408;28;20658;-82
2021/03/12 02:15:34;;;;;;;0.80;0.70;;;5.40;99.90;;;;;;5051713;28;20600;-83
2021/03/12 02:18:07;;;;;;;1.30;1.17;;;5.40;99.60;;;;;;5052387;28;20204;-82
2021/03/12 02:20:46;;;;;;;2.42;1.20;;;5.30;99.60;;;;;;5049962;28;20196;-82
2021/03/12 02:23:23;;;;;;;0.70;0.70;;;5.30;99.50;;;;;;5046926;28;20549;-83
2021/03/12 02:25:58;;;;;;;1.38;0.93;;;5.20;99.50;;;;;;5032417;28;20203;-83
2021/03/12 02:28:28;;;;;;;2.63;1.33;;;5.30;99.20;;;;;;5033322;28;20196;-83
2021/03/12 02:30:59;;;;;;;1.90;1.10;;;5.20;98.80;;;;;;5032548;28;20227;-82
2021/03/12 02:33:28;;;;;;;1.58;1.48;;;5.30;97.20;;;;;;5037596;28;20212;-82
2021/03/12 02:35:58;;;;;;;3.45;1.80;;;5.40;97.50;;;;;;5032661;28;20192;-83
2021/03/12 02:38:28;;;;;;;2.58;2.05;;;5.40;97.00;;;;;;5034020;28;20303;-83
2021/03/12 02:40:58;;;;;;;1.90;1.40;;;5.40;97.10;;;;;;5051744;28;20569;-83
2021/03/12 02:43:27;;;;;;;4.05;1.30;;;5.60;96.90;;;;;;5033169;28;20281;-83
2021/03/12 02:45:55;;;;;;;1.98;1.33;;;5.40;96.70;;;;;;5032923;28;20220;-83
2021/03/12 02:48:23;;;;;;;1.25;1.08;;;5.50;97.30;;;;;;5032681;28;20295;-82
2021/03/12 02:50:52;;;;;;;2.53;0.90;;;5.60;97.20;;;;;;5051366;28;20208;-83
2021/03/12 02:53:20;;;;;;;3.47;1.20;;;5.70;97.40;;;;;;5044457;28;20219;-83
2021/03/12 02:55:47;;;;;;;3.35;1.05;;;5.70;97.30;;;;;;5058283;28;20227;-83
2021/03/12 02:58:17;;;;;;;2.85;1.45;;;5.80;97.70;;;;;;5055656;28;20287;-83
2021/03/12 03:00:46;;;;;;;3.22;1.30;;;5.70;97.70;;;;;;5045715;28;20233;-83
2021/03/12 03:03:15;;;;;;;0.88;0.85;;;5.60;97.40;;;;;;5052248;28;20204;-83
2021/03/12 03:05:43;;;;;;;2.13;0.95;;;5.60;97.60;;;;;;5049954;28;20244;-83
2021/03/12 03:08:12;;;;;;;1.77;0.95;;;5.60;97.10;;;;;;5051007;28;20240;-83
2021/03/12 03:10:42;;;;;;;2.15;1.17;;;5.60;97.00;;;;;;5031832;28;20220;-83
2021/03/12 03:13:10;;;;;;;1.15;1.02;;;5.60;96.80;;;;;;5044757;28;20212;-83
2021/03/12 03:15:41;;;;;;;3.15;1.40;;;5.50;96.40;;;;;;5059678;28;20242;-83
2021/03/12 03:18:09;;;;;;;2.10;1.27;;;5.60;96.50;;;;;;5040286;28;20226;-82
2021/03/12 03:20:37;;;;;;;1.85;0.80;;;5.50;95.30;;;;;;5033281;28;20219;-83
2021/03/12 03:23:04;;;;;;;1.67;0.88;;;5.50;95.00;;;;;;5032756;28;20216;-83
2021/03/12 03:25:30;;;;;;;1.02;0.90;;;5.50;94.70;;;;;;5032209;28;20200;-82
2021/03/12 03:27:57;;;;;;;1.58;1.42;;;5.40;94.40;;;;;;5042063;28;20203;-83
2021/03/12 03:30:24;;;;;;;1.52;1.02;;;5.40;94.10;;;;;;5035803;28;20223;-82
2021/03/12 03:32:51;;;;;;;1.63;0.75;;;5.30;93.90;;;;;;5051511;28;20279;-83
2021/03/12 03:35:18;;;;;;;2.55;0.93;;;5.30;93.50;;;;;;5032494;28;20212;-82
2021/03/12 03:37:44;;;;;;;1.30;0.70;;;5.30;93.20;;;;;;5032428;28;20674;-82
2021/03/12 03:40:12;;;;;;;4.10;1.00;;;5.30;93.50;;;;;;5031949;28;20217;-82
2021/03/12 03:42:41;;;;;;;0.70;0.70;;;5.30;92.50;;;;;;5031340;28;20201;-82
2021/03/12 03:45:10;;;;;;;3.53;1.30;;;5.30;92.10;;;;;;5050886;28;20740;-82
2021/03/12 03:47:37;;;;;;;1.98;1.75;;;5.30;91.80;;;;;;5033487;28;20709;-82
2021/03/12 03:50:05;;;;;;;1.05;0.80;;;5.20;91.50;;;;;;5034614;28;20255;-81
2021/03/12 03:52:33;;;;;;;1.10;0.85;;;5.20;90.90;;;;;;5032701;28;20228;-81
2021/03/12 03:55:01;;;;;;;2.78;2.00;;;5.20;90.40;;;;;;5045871;28;20192;-82
2021/03/12 03:57:28;;;;;;;1.75;0.90;;;5.20;91.00;;;;;;5040554;28;20651;-83
2021/03/12 03:59:56;;;;;;;2.28;1.70;;;5.20;90.50;;;;;;5041626;28;20203;-82
2021/03/12 04:02:22;;;;;;;3.67;1.73;;;5.20;91.00;;;;;;5032517;28;20630;-82
2021/03/12 04:04:52;;;;;;;2.92;2.10;;;5.30;90.80;;;;;;5047568;28;20204;-82
2021/03/12 04:07:20;;;;;;;2.70;1.13;;;5.20;90.90;;;;;;5061467;28;20204;-83
2021/03/12 04:09:50;;;;;;;1.30;0.80;;;5.20;91.00;;;;;;5038695;28;20636;-82
2021/03/12 04:12:18;;;;;;;2.03;1.85;;;5.20;90.40;;;;;;5030779;28;20222;-82
2021/03/12 04:14:46;;;;;;;5.45;1.38;;;5.30;90.60;;;;;;5048766;28;20206;-82
2021/03/12 04:17:14;;;;;;;2.25;0.90;;;5.20;90.40;;;;;;5035968;28;20270;-83
2021/03/12 04:19:43;;;;;;;1.08;0.98;;;5.20;90.40;;;;;;5038672;28;20200;-81
2021/03/12 04:22:10;;;;;;;2.25;1.17;;;5.20;90.20;;;;;;5051001;28;20661;-82
2021/03/12 04:24:38;;;;;;;1.00;0.77;;;5.20;90.00;;;;;;5032323;28;20682;-82
2021/03/12 04:27:07;;;;;;;1.80;0.82;;;5.20;89.20;;;;;;5040856;28;20653;-83
2021/03/12 04:29:33;;;;;;;3.60;1.08;;;5.40;88.20;;;;;;5037735;28;20291;-82
2021/03/12 04:32:01;;;;;;;2.25;1.00;;;5.40;87.80;;;;;;5033441;28;20216;-83
2021/03/12 04:34:27;;;;;;;3.90;1.10;;;5.50;88.00;;;;;;5046170;28;20208;-82
2021/03/12 04:36:54;;;;;;;2.55;1.10;;;5.40;87.20;;;;;;5052752;28;20212;-83
2021/03/12 04:39:22;;;;;;;3.55;1.00;;;5.40;87.20;;;;;;5041817;28;20192;-83
2021/03/12 04:41:49;;;;;;;1.30;1.10;;;5.50;86.50;;;;;;5038149;28;20196;-83
2021/03/12 04:44:17;;;;;;;2.85;1.20;;;5.50;87.30;;;;;;5036086;28;20205;-83
2021/03/12 04:46:44;;;;;;;3.55;1.25;;;5.40;86.60;;;;;;5049932;28;20200;-83
2021/03/12 04:49:12;;;;;;;5.45;1.08;;;5.40;87.60;;;;;;5041575;28;20200;-83
2021/03/12 04:51:40;;;;;;;2.17;1.40;;;5.50;87.20;;;;;;5031974;28;20208;-83
2021/03/12 04:54:08;;;;;;;2.88;1.38;;;5.40;84.90;;;;;;5031522;28;20197;-83
2021/03/12 04:56:35;;;;;;;1.05;1.05;;;5.40;82.00;;;;;;5039767;28;20638;-83
2021/03/12 04:59:02;;;;;;;3.88;1.30;;;5.40;81.70;;;;;;5047158;28;20558;-83
2021/03/12 05:01:30;;;;;;;4.43;2.08;;;5.40;82.00;;;;;;5049470;28;20726;-82
2021/03/12 05:03:57;;;;;;;1.50;0.85;;;5.40;81.70;;;;;;5031292;28;20284;-82
2021/03/12 05:06:24;;;;;;;8.32;1.95;;;5.30;80.50;;;;;;5058570;28;20207;-82
2021/03/12 05:08:54;;;;;;;4.90;3.33;;;5.30;81.30;;;;;;5045639;28;20211;-82
2021/03/12 05:11:21;;;;;;;1.75;0.80;;;5.20;82.60;;;;;;5034776;28;20224;-82
2021/03/12 05:13:50;;;;;;;2.95;1.20;;;5.30;82.30;;;;;;5031221;28;20204;-82
2021/03/12 05:16:16;;;;;;;7.22;1.38;;;5.20;82.30;;;;;;5030792;28;20239;-82
2021/03/12 05:18:44;;;;;;;2.88;1.10;;;5.20;83.40;;;;;;5033249;28;20247;-82
2021/03/12 05:21:10;;;;;;;3.95;1.17;;;5.10;82.60;;;;;;5057159;28;20184;-83
2021/03/12 05:23:37;;;;;;;1.95;1.10;;;5.10;83.20;;;;;;5054604;28;20249;-82
2021/03/12 05:26:03;;;;;;;3.30;1.10;;;5.20;83.70;;;;;;5059420;28;20219;-82
2021/03/12 05:28:30;;;;;;;4.85;1.17;;;5.20;83.80;;;;;;5051617;28;20196;-82
2021/03/12 05:30:57;;;;;;;1.92;1.40;;;5.20;84.90;;;;;;5030813;28;20228;-82
2021/03/12 05:33:23;;;;;;;1.75;1.00;;;5.30;84.20;;;;;;5040468;28;20593;-83
2021/03/12 05:35:51;;;;;;;7.18;1.42;;;5.30;84.00;;;;;;5059949;28;20200;-82
2021/03/12 05:38:17;;;;;;;2.95;1.30;;;5.40;84.00;;;;;;5054305;28;20204;-82
2021/03/12 05:40:44;;;;;;;5.57;1.90;;;5.40;84.80;;;;;;5053617;28;20216;-82
2021/03/12 05:43:11;;;;;;;1.77;1.60;;;5.40;84.80;;;;;;5051061;28;20211;-82
2021/03/12 05:45:37;;;;;;;3.97;1.45;;;5.40;85.40;;;;;;5039291;28;20200;-82
2021/03/12 05:48:06;;;;;;;4.53;1.48;;;5.20;84.60;;;;;;5054029;28;20214;-82
2021/03/12 05:50:33;;;;;;;4.25;1.80;;;5.20;84.90;;;;;;5050839;28;20258;-82
2021/03/12 05:53:00;;;;;;;2.38;1.00;;;5.40;85.60;;;;;;5035182;28;20236;-82
2021/03/12 05:55:29;;;;;;;1.92;1.30;;;5.20;85.20;;;;;;5053447;28;20345;-83
2021/03/12 05:57:55;;;;;;;1.58;0.70;;;5.30;84.90;;;;;;5052100;28;20208;-83
2021/03/12 06:00:22;;;;;;;3.03;1.00;;;5.50;85.70;;;;;;5040640;28;20550;-81
2021/03/12 06:02:49;;;;;;;3.28;0.75;;;5.60;85.50;;;;;;5039156;28;20189;-84
2021/03/12 06:05:15;;;;;;;2.13;1.35;;;5.50;85.20;;;;;;5056463;28;20195;-84
2021/03/12 06:07:42;;;;;;;1.25;1.15;;;5.30;84.40;;;;;;5055304;28;20572;-84
2021/03/12 06:10:10;;;;;;;1.55;0.90;;;5.40;85.60;;;;;;5052804;28;20204;-83
2021/03/12 06:12:37;;;;;;;1.15;1.05;;;5.30;84.70;;;;;;5050544;28;20224;-84
2021/03/12 06:15:05;;;;;;;1.75;1.00;;;5.30;85.80;;;;;;5047233;28;20249;-83
2021/03/12 06:17:36;;;;;;;3.88;1.20;;;5.30;86.20;;;;;;5049105;28;20192;-84
2021/03/12 06:20:06;;;;;;;5.20;1.02;;;5.30;86.10;;;;;;5041484;28;20209;-84
2021/03/12 06:22:33;;;;;;;5.78;1.15;;;5.20;86.60;;;;;;5038240;28;20295;-84
2021/03/12 06:25:18;;;;;;;1.30;1.08;;;5.20;87.30;;;;;;5040586;28;20215;-84
2021/03/12 06:27:46;;;;;;;2.08;1.50;;;5.30;87.80;;;;;;5051051;28;20218;-85
2021/03/12 06:30:14;;;;;;;3.92;1.20;;;5.30;88.20;;;;;;5055377;28;20246;-85
2021/03/12 06:32:46;;;;;;;3.75;1.23;;;5.30;88.30;;;;;;5055665;28;20814;-84
2021/03/12 06:35:15;;;;;;;3.33;1.02;;;5.30;88.30;;;;;;5066398;28;20204;-84
2021/03/12 06:37:45;;;;;;;3.88;1.40;;;5.20;88.10;;;;;;5047496;28;20204;-84
2021/03/12 06:40:23;;;;;;;2.28;1.13;;;5.40;88.80;;;;;;5063350;28;20191;-85
2021/03/12 06:43:01;;;;;;;2.25;1.40;;;5.40;88.50;;;;;;5056155;28;20192;-84
2021/03/12 06:45:28;;;;;;;1.58;0.88;;;5.40;88.30;;;;;;5031794;28;20208;-84
2021/03/12 06:48:14;;;;;;;2.05;0.90;;;5.50;89.90;;;;;;5032440;28;20197;-84
2021/03/12 06:50:45;;;;;;;1.30;0.85;;;5.70;89.10;;;;;;5032458;28;20736;-85
2021/03/12 06:53:22;;;;;;;1.67;1.02;;;6.00;88.50;;;;;;5032091;28;20209;-84
2021/03/12 06:55:50;;;;;;;1.63;1.25;;;6.10;87.80;;;;;;5032870;28;20219;-84
2021/03/12 06:58:47;;;;;;;;;;;;;;;;;;;;;
2021/03/12 07:01:28;;;;;;;1.20;1.10;;;5.80;87.90;;;;;;5063160;28;20199;-84
2021/03/12 07:04:09;;;;;;;2.17;0.93;;;5.80;90.20;;;;;;5070428;28;20684;-84
2021/03/12 07:06:43;;;;;;;4.10;0.80;;;5.50;90.30;;;;;;5067253;28;20215;-84
2021/03/12 07:09:10;;;;;;;3.15;1.30;;;5.40;90.90;;;;;;5059538;28;20931;-84
2021/03/12 07:11:38;;;;;;;2.55;0.80;;;5.40;91.00;;;;;;5052108;28;20243;-84
2021/03/12 07:14:07;;;;;;;2.38;0.90;;;5.40;91.00;;;;;;5048606;28;20196;-84
2021/03/12 07:16:34;;;;;;;2.72;1.10;;;5.60;91.40;;;;;;5047391;28;20254;-84
2021/03/12 07:19:01;;;;;;;2.90;0.82;;;5.80;91.30;;;;;;5062868;28;20188;-85
2021/03/12 07:21:29;;;;;;;1.70;0.80;;;5.90;90.80;;;;;;5070599;28;20248;-84
2021/03/12 07:23:59;;;;;;;2.72;1.27;;;5.80;90.60;;;;;;5066242;28;20203;-84
2021/03/12 07:26:29;;;;;;;4.65;0.95;;;5.60;90.30;;;;;;5061258;28;20671;-85
2021/03/12 07:29:01;;;;;;;2.05;0.82;;;5.90;90.70;;;;;;5060809;28;20200;-84
2021/03/12 07:31:34;;;;;;;3.83;0.95;;;6.10;90.80;;;;;;5068139;28;20624;-85
2021/03/12 07:34:07;;;;;;;1.33;0.85;;;6.10;90.30;;;;;;5054074;28;20191;-84
2021/03/12 07:36:33;;;;;;;2.10;1.00;;;6.10;90.20;;;;;;5049591;28;20579;-85
2021/03/12 07:39:04;;;;;;;2.55;0.77;;;6.10;90.00;;;;;;5046063;28;20200;-85
2021/03/12 07:41:30;;;;;;;1.23;0.60;;;6.10;90.10;;;;;;5049582;28;20185;-84
2021/03/12 07:43:58;;;;;;;2.58;0.77;;;5.90;88.40;;;;;;5032956;28;20211;-84
2021/03/12 07:46:27;;;;;;;0.70;0.70;;;5.90;89.90;;;;;;5033482;28;20204;-84
2021/03/12 07:48:53;;;;;;;2.00;0.60;;;6.00;89.40;;;;;;5050694;28;20204;-84
2021/03/12 07:51:20;;;;;;;2.15;1.42;;;6.10;89.70;;;;;;5034468;28;20220;-85
2021/03/12 07:53:51;;;;;;;0.75;0.75;;;6.20;89.90;;;;;;5033126;28;20197;-84
2021/03/12 07:56:36;;;;;;;3.25;0.85;;;6.10;87.00;;;;;;5042343;28;20203;-84
2021/03/12 07:59:04;;;;;;;1.83;0.85;;;6.20;88.30;;;;;;5032376;28;20212;-84
2021/03/12 08:01:47;;;;;;;5.70;1.27;;;6.40;88.30;;;;;;5032516;28;20200;-85
2021/03/12 08:04:28;;;;;;;3.67;1.02;;;6.50;86.80;;;;;;5041001;28;20200;-84
2021/03/12 08:06:55;;;;;;;2.08;0.98;;;6.50;86.50;;;;;;5049839;28;20254;-84
2021/03/12 08:09:33;;;;;;;1.38;1.02;;;6.50;85.40;;;;;;5033929;28;20570;-84
2021/03/12 08:12:00;;;;;;;3.67;1.05;;;6.40;85.00;;;;;;5033671;28;20226;-84
2021/03/12 08:14:28;;;;;;;1.70;1.10;;;6.50;86.00;;;;;;5049251;28;20199;-85
2021/03/12 08:17:19;;;;;;;2.13;1.20;;;6.60;85.70;;;;;;5042064;28;20287;-84
2021/03/12 08:19:49;;;;;;;1.08;0.80;;;6.80;85.60;;;;;;5029167;28;20242;-85
2021/03/12 08:22:43;;;;;;;1.23;1.13;;;7.10;85.70;;;;;;5051846;28;20538;-85
2021/03/12 08:25:35;;;;;;;1.13;0.88;;;7.40;86.00;;;;;;5050320;28;20208;-84
2021/03/12 08:28:03;;;;;;;2.50;0.82;;;7.50;83.50;;;;;;5020109;28;20216;-85
2021/03/12 08:30:48;;;;;;;2.28;1.00;;;7.60;83.40;;;;;;5052129;28;20229;-85
2021/03/12 08:33:33;;;;;;;2.15;1.45;;;7.90;83.10;;;;;;5044838;28;20204;-85
2021/03/12 08:36:00;;;;;;;0.90;0.75;;;8.10;83.50;;;;;;5037009;28;20242;-85
2021/03/12 08:38:40;;;;;;;1.65;0.80;;;8.30;82.90;;;;;;5049371;28;20223;-84
2021/03/12 08:41:12;;;;;;;1.65;0.80;;;8.50;82.60;;;;;;5048307;28;20231;-85
2021/03/12 08:43:59;;;;;;;1.50;0.93;;;8.30;78.90;;;;;;5051650;28;20667;-84
2021/03/12 08:46:29;;;;;;;3.10;1.10;;;8.20;78.70;;;;;;5040743;28;20199;-84
2021/03/12 08:48:58;;;;;;;1.08;0.80;;;8.30;80.70;;;;;;5035623;28;20200;-84
2021/03/12 08:51:27;;;;;;;2.63;0.93;;;8.50;79.60;;;;;;5034569;28;20232;-84
2021/03/12 08:53:58;;;;;;;1.77;1.38;;;8.70;78.70;;;;;;5041989;28;20269;-85
2021/03/12 08:56:30;;;;;;;2.38;0.80;;;8.50;77.00;;;;;;5054712;28;20265;-85
2021/03/12 08:58:57;;;;;;;1.90;1.20;;;8.40;76.40;;;;;;5034342;28;20207;-85
2021/03/12 09:01:25;;;;;;;3.63;1.00;;;8.20;76.80;;;;;;5034421;28;20204;-85
2021/03/12 09:03:55;;;;;;;2.30;1.10;;;8.30;75.70;;;;;;5042291;28;21118;-84
2021/03/12 09:06:24;;;;;;;1.35;0.90;;;8.10;72.70;;;;;;5066863;28;20207;-85
2021/03/12 09:08:51;;;;;;;2.05;0.82;;;8.20;73.00;;;;;;5031114;28;20248;-84
2021/03/12 09:11:19;;;;;;;1.38;0.80;;;8.20;72.50;;;;;;5018796;28;20247;-83
2021/03/12 09:13:47;;;;;;;1.73;1.00;;;8.20;71.90;;;;;;5024932;28;20217;-83
2021/03/12 09:16:20;;;;;;;2.65;0.80;;;8.20;71.70;;;;;;5027054;28;20200;-83
2021/03/12 09:18:46;;;;;;;1.05;0.65;;;8.30;71.80;;;;;;5038425;28;20204;-83
2021/03/12 09:21:16;;;;;;;3.17;1.20;;;8.30;71.50;;;;;;5039040;28;20604;-83
2021/03/12 09:23:44;;;;;;;1.20;1.10;;;8.30;71.10;;;;;;5031735;28;20609;-83
2021/03/12 09:26:13;;;;;;;1.45;0.95;;;8.60;73.60;;;;;;5020368;28;20201;-83
2021/03/12 09:28:40;;;;;;;2.03;1.05;;;8.60;70.80;;;;;;5034150;28;20201;-84
2021/03/12 09:31:08;;;;;;;1.77;0.77;;;8.30;69.80;;;;;;5031096;28;20217;-84
2021/03/12 09:33:37;;;;;;;6.53;1.67;;;8.00;69.60;;;;;;5022402;28;20731;-83
2021/03/12 09:36:06;;;;;;;1.73;0.80;;;8.10;71.10;;;;;;5019331;28;20212;-84
2021/03/12 09:38:38;;;;;;;2.95;0.73;;;8.20;70.60;;;;;;5025598;28;20212;-83
2021/03/12 09:41:16;;;;;;;4.03;1.25;;;8.20;70.90;;;;;;5028124;28;20186;-83
2021/03/12 09:43:44;;;;;;;4.10;1.58;;;8.40;70.00;;;;;;5036150;28;20200;-84
2021/03/12 09:46:12;;;;;;;3.25;0.80;;;8.70;72.30;;;;;;5038159;28;20200;-84
2021/03/12 09:48:39;;;;;;;2.60;1.08;;;8.80;70.80;;;;;;5021445;28;20201;-84
2021/03/12 09:51:07;;;;;;;0.80;0.80;;;8.90;71.90;;;;;;5028929;28;20201;-84
2021/03/12 09:53:34;;;;;;;1.90;1.00;;;8.90;71.40;;;;;;5026118;28;20231;-84
2021/03/12 09:56:01;;;;;;;2.47;1.30;;;8.80;71.10;;;;;;5038590;28;20216;-84
2021/03/12 09:58:28;;;;;;;3.58;1.40;;;8.90;72.70;;;;;;5026466;28;20211;-84
2021/03/12 10:01:10;;;;;;;4.63;1.30;;;8.80;69.90;;;;;;5029769;28;20198;-84
2021/03/12 10:03:37;;;;;;;0.73;0.65;;;8.50;71.30;;;;;;5018674;28;20236;-83
2021/03/12 10:06:11;;;;;;;1.95;0.73;;;8.20;71.20;;;;;;5042840;28;20235;-83
2021/03/12 10:09:08;;;;;;;2.17;0.75;;;8.00;71.80;;;;;;5018793;28;20564;-83
2021/03/12 10:11:43;;;;;;;2.17;0.93;;;7.70;72.40;;;;;;5023248;28;20209;-82
2021/03/12 10:14:35;;;;;;;3.78;0.80;;;7.70;73.00;;;;;;5017906;28;20197;-83
2021/03/12 10:17:07;;;;;;;2.80;0.65;;;7.60;73.80;;;;;;5029763;28;20239;-83
2021/03/12 10:19:41;;;;;;;2.22;1.20;;;7.70;75.20;;;;;;5030770;28;20213;-83
2021/03/12 10:22:17;;;;;;;1.40;1.00;;;8.00;74.90;;;;;;5017856;28;20208;-83
2021/03/12 10:24:47;;;;;;;1.35;1.25;;;8.20;74.90;;;;;;5017033;28;20217;-83
2021/03/12 10:27:24;;;;;;;3.60;1.30;;;8.50;78.50;;;;;;5029600;28;20568;-83
2021/03/12 10:29:52;;;;;;;6.28;1.20;;;8.70;82.40;;;;;;5024062;28;20204;-83
2021/03/12 10:32:18;;;;;;;2.58;0.90;;;8.90;83.20;;;;;;5018648;28;20240;-83
2021/03/12 10:34:46;;;;;;;1.35;1.00;;;8.30;83.20;;;;;;5033750;28;20559;-83
2021/03/12 10:37:14;;;;;;;1.80;1.10;;;8.20;84.20;;;;;;5024933;28;20596;-83
2021/03/12 10:39:42;;;;;;;1.77;1.10;;;8.50;84.30;;;;;;5022311;28;20217;-84
2021/03/12 10:42:10;;;;;;;0.57;0.57;;;8.60;83.20;;;;;;5036471;28;20201;-84
2021/03/12 10:44:53;;;;;;;1.55;1.08;;;8.30;82.70;;;;;;5034668;28;20201;-83
2021/03/12 10:47:20;;;;;;;1.38;0.90;;;8.20;82.20;;;;;;5024555;28;20745;-83
2021/03/12 10:49:47;;;;;;;2.55;0.93;;;8.40;81.70;;;;;;5026517;28;21105;-83
2021/03/12 10:52:30;;;;;;;1.33;0.70;;;8.40;80.60;;;;;;5031195;28;20213;-83
2021/03/12 10:55:07;;;;;;;0.98;0.80;;;8.50;82.30;;;;;;5022577;28;20630;-83
2021/03/12 10:57:44;;;;;;;1.55;1.15;;;8.50;80.80;;;;;;5030609;28;20200;-83
2021/03/12 11:00:18;;;;;;;1.08;0.73;;;8.60;79.30;;;;;;5022110;28;20200;-83
2021/03/12 11:02:45;;;;;;;1.90;1.20;;;8.50;79.10;;;;;;5022373;28;20200;-83
2021/03/12 11:05:13;;;;;;;1.75;0.90;;;8.30;78.50;;;;;;5030898;28;20223;-83
2021/03/12 11:07:40;;;;;;;1.20;1.10;;;8.30;78.50;;;;;;5050646;28;20204;-83
2021/03/12 11:10:08;;;;;;;6.40;1.00;;;8.60;78.40;;;;;;5032202;28;20570;-83
2021/03/12 11:12:41;;;;;;;1.52;0.90;;;8.60;74.30;;;;;;5019174;28;20554;-83
2021/03/12 11:15:10;;;;;;;3.08;1.33;;;8.70;72.70;;;;;;5017402;28;20233;-83
2021/03/12 11:17:39;;;;;;;3.63;1.05;;;8.80;70.30;;;;;;5030912;28;20262;-82
2021/03/12 11:20:07;;;;;;;1.98;1.63;;;8.90;70.00;;;;;;5033280;28;20209;-82
2021/03/12 11:22:34;;;;;;;1.35;0.60;;;9.10;70.70;;;;;;5031441;28;20196;-81
2021/03/12 11:25:00;;;;;;;1.25;0.70;;;8.90;66.70;;;;;;5015555;28;20193;-82
2021/03/12 11:27:27;;;;;;;1.55;1.05;;;9.20;68.50;;;;;;5030318;28;20219;-81
2021/03/12 11:29:54;;;;;;;3.40;1.27;;;9.20;65.10;;;;;;5019837;28;20208;-82
2021/03/12 11:32:22;;;;;;;1.55;1.10;;;9.30;68.50;;;;;;5021584;28;20652;-82
2021/03/12 11:34:49;;;;;;;0.70;0.70;;;9.30;67.30;;;;;;5016263;28;20602;-82
2021/03/12 11:37:15;;;;;;;0.93;0.60;;;9.40;66.20;;;;;;5020473;28;20292;-82
2021/03/12 11:39:42;;;;;;;1.00;0.90;;;9.70;65.90;;;;;;5023090;28;20225;-82
2021/03/12 11:42:09;;;;;;;1.40;0.80;;;9.70;62.90;;;;;;5015517;28;20561;-82
2021/03/12 11:44:36;;;;;;;1.27;0.97;;;9.90;63.60;;;;;;5027013;28;20328;-82
2021/03/12 11:47:02;;;;;;;0.80;0.80;;;10.20;61.80;;;;;;5030653;28;20634;-81
2021/03/12 11:49:30;;;;;;;1.07;1.07;;;9.90;62.50;;;;;;5027442;28;20623;-81
2021/03/12 11:51:57;;;;;;;1.90;0.73;;;10.10;62.20;;;;;;5020767;28;20671;-81
2021/03/12 11:54:24;;;;;;;2.10;1.10;;;10.20;58.60;;;;;;5026297;28;21185;-82
2021/03/12 11:56:50;;;;;;;2.70;0.90;;;10.30;60.30;;;;;;5016109;28;21029;-82
2021/03/12 11:59:18;;;;;;;2.73;1.10;;;10.40;59.10;;;;;;5028147;28;20685;-82
2021/03/12 12:01:45;;;;;;;1.63;1.10;;;10.50;57.60;;;;;;5030410;28;20636;-82
2021/03/12 12:04:12;;;;;;;3.30;1.30;;;10.20;56.90;;;;;;5023438;28;20697;-82
2021/03/12 12:06:39;;;;;;;1.73;1.07;;;10.60;58.70;;;;;;5051425;28;21058;-82
2021/03/12 12:09:06;;;;;;;1.37;0.93;;;10.60;58.10;;;;;;5037926;28;20623;-83
2021/03/12 12:11:33;;;;;;;2.97;1.03;;;10.40;57.70;;;;;;5014824;28;20668;-82
2021/03/12 12:14:00;;;;;;;1.80;1.30;;;10.60;59.70;;;;;;5021779;28;20631;-82
2021/03/12 12:16:27;;;;;;;0.50;0.50;;;10.40;59.40;;;;;;5025197;28;20631;-82
2021/03/12 12:18:55;;;;;;;5.07;2.73;;;10.50;59.70;;;;;;5032294;28;20632;-82
2021/03/12 12:21:21;;;;;;;1.60;1.10;;;10.50;62.10;;;;;;5033369;28;20612;-82
2021/03/12 12:23:49;;;;;;;1.57;1.00;;;10.70;62.00;;;;;;5026386;28;20630;-82
2021/03/12 12:26:16;;;;;;;3.93;2.27;;;10.50;58.90;;;;;;5029457;28;20618;-82
2021/03/12 12:28:42;;;;;;;1.90;1.00;;;10.70;58.70;;;;;;5019353;28;20615;-82
2021/03/12 12:31:09;;;;;;;3.00;1.20;;;10.90;59.20;;;;;;5053377;28;20618;-82
2021/03/12 12:33:35;;;;;;;2.43;0.80;;;11.20;60.20;;;;;;5037703;28;20620;-82
2021/03/12 12:36:02;;;;;;;1.20;1.10;;;11.00;57.40;;;;;;5037929;28;20618;-82
2021/03/12 12:38:28;;;;;;;2.10;1.10;;;10.90;58.80;;;;;;5041274;28;20623;-82
2021/03/12 12:40:56;;;;;;;2.00;1.20;;;11.10;59.00;;;;;;5014708;28;20666;-83
2021/03/12 12:43:22;;;;;;;2.10;1.10;;;11.10;57.90;;;;;;5019161;28;20620;-81
2021/03/12 12:45:49;;;;;;;1.07;0.97;;;11.30;59.00;;;;;;5032831;28;20646;-82
2021/03/12 12:48:15;;;;;;;0.90;0.77;;;11.30;57.70;;;;;;5015457;28;20678;-82
2021/03/12 12:50:42;;;;;;;1.47;0.83;;;11.50;59.00;;;;;;5012968;28;21181;-82
2021/03/12 12:53:08;;;;;;;3.50;1.33;;;11.70;58.20;;;;;;5025883;28;20652;-83
2021/03/12 12:55:35;;;;;;;1.70;0.90;;;11.20;54.90;;;;;;5014005;28;20616;-82
2021/03/12 12:58:03;;;;;;;1.50;1.17;;;11.20;54.90;;;;;;5028476;28;20631;-82
2021/03/12 13:00:29;;;;;;;1.50;1.33;;;11.40;55.60;;;;;;5016401;28;20624;-83
2021/03/12 13:02:56;;;;;;;1.60;0.90;;;11.10;54.40;;;;;;5015286;28;20631;-84
2021/03/12 13:05:22;;;;;;;0.97;0.80;;;10.60;54.10;;;;;;5029673;28;20634;-84
2021/03/12 13:07:49;;;;;;;1.17;0.80;;;10.20;54.50;;;;;;5044132;28;20642;-83